createdAt,value
2023-03-16T00:01:02.532Z,665.00
2023-03-16T00:05:02.301Z,671.00
2023-03-16T00:09:02.468Z,670.00
2023-03-16T00:13:02.648Z,669.00
2023-03-16T00:17:02.826Z,671.00
2023-03-16T00:21:03.006Z,663.00
2023-03-16T00:25:03.162Z,665.00
2023-03-16T00:29:03.347Z,667.00
2023-03-16T00:33:03.563Z,669.00
2023-03-16T00:37:03.679Z,663.00
2023-03-16T00:41:03.872Z,668.00
2023-03-16T00:45:04.081Z,667.00
2023-03-16T00:49:04.287Z,664.00
2023-03-16T00:53:04.462Z,663.00
2023-03-16T00:57:04.589Z,659.00
2023-03-16T01:01:04.842Z,658.00
2023-03-16T01:05:05.032Z,657.00
2023-03-16T01:09:05.281Z,661.00
2023-03-16T01:13:05.455Z,659.00
2023-03-16T01:17:05.675Z,658.00
2023-03-16T01:21:06.034Z,654.00
2023-03-16T01:25:06.135Z,651.00
2023-03-16T01:29:06.296Z,662.00
2023-03-16T01:33:06.709Z,660.00
2023-03-16T01:37:06.829Z,654.00
2023-03-16T01:41:06.932Z,658.00
2023-03-16T01:45:07.214Z,663.00
2023-03-16T01:49:08.524Z,667.00
2023-03-16T01:53:07.628Z,661.00
2023-03-16T01:57:07.823Z,662.00
2023-03-16T02:01:08.100Z,661.00
2023-03-16T02:05:08.272Z,660.00
2023-03-16T02:09:08.993Z,660.00
2023-03-16T02:13:08.738Z,660.00
2023-03-16T02:17:09.037Z,661.00
2023-03-16T02:21:09.990Z,661.00
2023-03-16T02:25:09.083Z,660.00
2023-03-16T02:29:09.015Z,664.00
2023-03-16T02:33:08.920Z,667.00
2023-03-16T02:37:08.982Z,664.00
2023-03-16T02:41:08.859Z,666.00
2023-03-16T02:45:08.842Z,661.00
2023-03-16T02:49:09.019Z,658.00
2023-03-16T02:53:08.741Z,659.00
2023-03-16T02:57:08.697Z,655.00
2023-03-16T03:01:08.750Z,657.00
2023-03-16T03:05:08.970Z,658.00
2023-03-16T03:09:09.143Z,660.00
2023-03-16T03:13:09.364Z,658.00
2023-03-16T03:17:09.614Z,656.00
2023-03-16T03:21:09.814Z,655.00
2023-03-16T03:25:09.754Z,657.00
2023-03-16T03:29:09.835Z,656.00
2023-03-16T03:33:09.800Z,654.00
2023-03-16T03:37:09.676Z,651.00
2023-03-16T03:41:09.657Z,649.00
2023-03-16T03:45:09.517Z,644.00
2023-03-16T03:49:09.523Z,647.00
2023-03-16T03:53:09.456Z,642.00
2023-03-16T03:57:09.435Z,642.00
2023-03-16T04:01:09.558Z,639.00
2023-03-16T04:05:10.035Z,642.00
2023-03-16T04:09:09.315Z,640.00
2023-03-16T04:13:09.421Z,648.00
2023-03-16T04:17:09.490Z,641.00
2023-03-16T04:21:09.626Z,642.00
2023-03-16T04:25:11.420Z,641.00
2023-03-16T04:29:09.715Z,640.00
2023-03-16T04:33:09.839Z,645.00
2023-03-16T04:37:09.886Z,645.00
2023-03-16T04:41:09.881Z,641.00
2023-03-16T04:45:09.940Z,642.00
2023-03-16T04:49:10.009Z,643.00
2023-03-16T04:53:10.068Z,640.00
2023-03-16T04:57:10.026Z,643.00
2023-03-16T05:01:10.037Z,644.00
2023-03-16T05:05:10.047Z,643.00
2023-03-16T05:09:10.004Z,639.00
2023-03-16T05:13:09.959Z,641.00
2023-03-16T05:17:10.008Z,638.00
2023-03-16T05:21:09.951Z,641.00
2023-03-16T05:25:10.087Z,639.00
2023-03-16T05:29:10.072Z,641.00
2023-03-16T05:33:10.324Z,639.00
2023-03-16T05:37:10.163Z,644.00
2023-03-16T05:41:10.572Z,639.00
2023-03-16T05:45:10.070Z,635.00
2023-03-16T05:49:10.094Z,634.00
2023-03-16T05:53:10.584Z,633.00
2023-03-16T05:57:10.034Z,646.00
2023-03-16T06:01:09.954Z,643.00
2023-03-16T06:05:09.948Z,647.00
2023-03-16T06:09:09.897Z,645.00
2023-03-16T06:13:09.973Z,634.00
2023-03-16T06:17:09.835Z,629.00
2023-03-16T06:21:09.803Z,625.00
2023-03-16T06:25:09.944Z,621.00
2023-03-16T06:29:10.379Z,625.00
2023-03-16T06:33:10.399Z,636.00
2023-03-16T06:37:10.392Z,781.00
2023-03-16T06:41:10.379Z,839.00
2023-03-16T06:45:10.535Z,846.00
2023-03-16T06:49:11.636Z,873.00
2023-03-16T06:53:10.868Z,811.00
2023-03-16T06:57:10.860Z,762.00
2023-03-16T07:01:10.985Z,746.00
2023-03-16T07:05:11.015Z,826.00
2023-03-16T07:09:11.300Z,764.00
2023-03-16T07:13:12.277Z,726.00
2023-03-16T07:17:11.116Z,766.00
2023-03-16T07:21:11.185Z,716.00
2023-03-16T07:25:11.111Z,772.00
2023-03-16T07:29:11.015Z,777.00
2023-03-16T07:33:10.978Z,823.00
2023-03-16T07:37:11.131Z,802.00
2023-03-16T07:41:11.425Z,814.00
2023-03-16T07:45:11.439Z,821.00
2023-03-16T07:49:11.400Z,823.00
2023-03-16T07:53:11.556Z,822.00
2023-03-16T07:57:11.512Z,823.00
2023-03-16T08:01:11.651Z,824.00
2023-03-16T08:05:11.716Z,820.00
2023-03-16T08:09:11.681Z,823.00
2023-03-16T08:13:15.277Z,818.00
2023-03-16T08:17:11.687Z,824.00
2023-03-16T08:21:12.222Z,822.00
2023-03-16T08:25:11.406Z,831.00
2023-03-16T08:29:11.547Z,826.00
2023-03-16T08:33:11.516Z,960.00
2023-03-16T08:37:11.501Z,844.00
2023-03-16T08:41:16.251Z,864.00
2023-03-16T08:45:13.995Z,985.00
2023-03-16T08:49:11.241Z,1078.00
2023-03-16T08:53:11.241Z,1163.00
2023-03-16T08:57:12.174Z,1220.00
2023-03-16T09:01:11.341Z,1333.00
2023-03-16T09:05:11.192Z,1404.00
2023-03-16T09:09:11.221Z,1597.00
2023-03-16T09:13:11.050Z,1566.00
2023-03-16T09:17:11.001Z,1601.00
2023-03-16T09:21:10.928Z,1683.00
2023-03-16T09:25:10.894Z,1358.00
2023-03-16T09:29:10.972Z,1064.00
2023-03-16T09:33:10.978Z,878.00
2023-03-16T09:37:10.880Z,753.00
2023-03-16T09:41:10.994Z,703.00
2023-03-16T09:45:11.117Z,901.00
2023-03-16T09:49:13.764Z,791.00
2023-03-16T09:53:10.908Z,731.00
2023-03-16T09:57:11.743Z,673.00
2023-03-16T10:01:10.927Z,632.00
2023-03-16T10:05:10.909Z,611.00
2023-03-16T10:09:10.769Z,580.00
2023-03-16T10:13:10.797Z,560.00
2023-03-16T10:17:10.707Z,538.00
2023-03-16T10:21:10.785Z,532.00
2023-03-16T10:25:10.579Z,529.00
2023-03-16T10:29:10.728Z,699.00
2023-03-16T10:33:10.645Z,793.00
2023-03-16T10:37:10.645Z,913.00
2023-03-16T10:41:10.721Z,808.00
2023-03-16T10:45:11.264Z,772.00
2023-03-16T10:49:10.913Z,735.00
2023-03-16T10:53:11.097Z,695.00
2023-03-16T10:57:11.478Z,703.00
2023-03-16T11:01:11.323Z,744.00
2023-03-16T11:05:12.573Z,770.00
2023-03-16T11:09:11.461Z,813.00
2023-03-16T11:13:12.274Z,869.00
2023-03-16T11:17:11.305Z,889.00
2023-03-16T11:21:11.305Z,902.00
2023-03-16T11:25:11.266Z,935.00
2023-03-16T11:29:11.750Z,944.00
2023-03-16T11:33:12.693Z,1042.00
2023-03-16T11:37:11.177Z,1067.00
2023-03-16T11:41:11.193Z,1122.00
2023-03-16T11:45:11.453Z,1159.00
2023-03-16T11:49:11.539Z,1183.00
2023-03-16T11:53:11.518Z,1174.00
2023-03-16T11:57:11.650Z,1235.00
2023-03-16T12:01:11.737Z,1170.00
2023-03-16T12:05:11.712Z,1198.00
2023-03-16T12:09:11.806Z,1199.00
2023-03-16T12:13:11.870Z,1185.00
2023-03-16T12:17:12.236Z,1205.00
2023-03-16T12:21:16.315Z,1217.00
2023-03-16T12:25:11.961Z,1222.00
2023-03-16T12:29:11.933Z,1206.00
2023-03-16T12:33:11.906Z,1197.00
2023-03-16T12:37:11.825Z,1185.00
2023-03-16T12:41:11.813Z,1169.00
2023-03-16T12:45:11.749Z,1154.00
2023-03-16T12:49:11.879Z,1122.00
2023-03-16T12:53:11.984Z,1087.00
2023-03-16T12:57:12.258Z,1054.00
2023-03-16T13:01:12.366Z,1033.00
2023-03-16T13:05:12.435Z,1011.00
2023-03-16T13:09:12.780Z,987.00
2023-03-16T13:13:12.760Z,965.00
2023-03-16T13:17:13.033Z,950.00
2023-03-16T13:21:13.251Z,931.00
2023-03-16T13:25:13.386Z,908.00
2023-03-16T13:29:13.565Z,888.00
2023-03-16T13:33:13.758Z,872.00
2023-03-16T13:37:13.976Z,812.00
2023-03-16T13:41:14.196Z,819.00
2023-03-16T13:45:14.189Z,803.00
2023-03-16T13:49:14.249Z,796.00
2023-03-16T13:53:14.108Z,783.00
2023-03-16T13:57:14.022Z,777.00
2023-03-16T14:01:14.127Z,760.00
2023-03-16T14:05:13.971Z,748.00
2023-03-16T14:09:13.961Z,742.00
2023-03-16T14:13:13.889Z,728.00
2023-03-16T14:17:13.851Z,724.00
2023-03-16T14:21:13.875Z,714.00
2023-03-16T14:25:13.851Z,708.00
2023-03-16T14:29:13.799Z,697.00
2023-03-16T14:33:13.777Z,693.00
2023-03-16T14:37:13.740Z,678.00
2023-03-16T14:41:13.739Z,677.00
2023-03-16T14:45:13.659Z,655.00
2023-03-16T14:49:13.622Z,649.00
2023-03-16T14:53:13.597Z,645.00
2023-03-16T14:57:13.569Z,634.00
2023-03-16T15:01:13.599Z,632.00
2023-03-16T15:05:13.547Z,631.00
2023-03-16T15:09:13.505Z,625.00
2023-03-16T15:13:13.806Z,612.00
2023-03-16T15:17:13.537Z,598.00
2023-03-16T15:21:13.527Z,580.00
2023-03-16T15:25:13.494Z,576.00
2023-03-16T15:29:13.504Z,583.00
2023-03-16T15:33:13.480Z,585.00
2023-03-16T15:37:14.320Z,628.00
2023-03-16T15:41:13.472Z,613.00
2023-03-16T15:45:13.481Z,621.00
2023-03-16T15:49:13.421Z,627.00
2023-03-16T15:53:29.209Z,629.00
2023-03-16T15:57:14.697Z,631.00
2023-03-16T16:01:13.691Z,632.00
2023-03-16T16:05:14.463Z,626.00
2023-03-16T16:09:13.639Z,622.00
2023-03-16T16:13:13.556Z,628.00
2023-03-16T16:17:13.541Z,624.00
2023-03-16T16:21:13.534Z,625.00
2023-03-16T16:25:13.506Z,626.00
2023-03-16T16:29:14.357Z,623.00
2023-03-16T16:33:13.535Z,625.00
2023-03-16T16:37:13.486Z,624.00
2023-03-16T16:41:13.564Z,628.00
2023-03-16T16:45:13.574Z,618.00
2023-03-16T16:49:13.486Z,615.00
2023-03-16T16:53:13.481Z,620.00
2023-03-16T16:57:13.563Z,620.00
2023-03-16T17:01:13.538Z,619.00
2023-03-16T17:05:13.524Z,616.00
2023-03-16T17:09:13.594Z,615.00
2023-03-16T17:13:13.607Z,612.00
2023-03-16T17:17:13.755Z,612.00
2023-03-16T17:21:13.714Z,613.00
2023-03-16T17:25:13.692Z,607.00
2023-03-16T17:29:13.762Z,607.00
2023-03-16T17:33:13.836Z,608.00
2023-03-16T17:37:13.895Z,605.00
2023-03-16T17:41:13.979Z,602.00
2023-03-16T17:45:14.054Z,604.00
2023-03-16T17:49:14.190Z,602.00
2023-03-16T17:53:14.216Z,599.00
2023-03-16T17:57:14.343Z,604.00
2023-03-16T18:01:14.454Z,603.00
2023-03-16T18:05:14.531Z,604.00
2023-03-16T18:09:14.624Z,605.00
2023-03-16T18:13:14.739Z,599.00
2023-03-16T18:17:14.867Z,605.00
2023-03-16T18:21:14.992Z,599.00
2023-03-16T18:25:15.103Z,598.00
2023-03-16T18:29:15.238Z,597.00
2023-03-16T18:33:15.366Z,596.00
2023-03-16T18:37:15.497Z,601.00
2023-03-16T18:41:15.675Z,601.00
2023-03-16T18:45:15.796Z,594.00
2023-03-16T18:49:15.919Z,593.00
2023-03-16T18:53:16.085Z,595.00
2023-03-16T18:57:16.186Z,602.00
2023-03-16T19:01:16.350Z,602.00
2023-03-16T19:05:16.481Z,597.00
2023-03-16T19:09:16.602Z,594.00
2023-03-16T19:13:16.730Z,590.00
2023-03-16T19:17:16.891Z,588.00
2023-03-16T19:21:17.080Z,587.00
2023-03-16T19:25:17.305Z,590.00
2023-03-16T19:29:17.477Z,599.00
2023-03-16T19:33:17.555Z,596.00
2023-03-16T19:37:17.740Z,596.00
2023-03-16T19:41:17.914Z,598.00
2023-03-16T19:45:18.099Z,592.00
2023-03-16T19:49:18.262Z,592.00
2023-03-16T19:53:18.459Z,593.00
2023-03-16T19:57:18.678Z,597.00
2023-03-16T20:01:18.889Z,594.00
2023-03-16T20:05:19.036Z,595.00
2023-03-16T20:09:19.268Z,593.00
2023-03-16T20:13:19.437Z,594.00
2023-03-16T20:17:19.639Z,593.00
2023-03-16T20:21:19.835Z,593.00
2023-03-16T20:25:20.050Z,596.00
2023-03-16T20:29:20.293Z,596.00
2023-03-16T20:33:20.512Z,592.00
2023-03-16T20:37:20.686Z,590.00
2023-03-16T20:41:20.977Z,596.00
2023-03-16T20:45:21.160Z,590.00
2023-03-16T20:49:21.380Z,585.00
2023-03-16T20:53:21.597Z,583.00
2023-03-16T20:57:21.771Z,588.00
2023-03-16T21:01:21.814Z,585.00
2023-03-16T21:05:21.718Z,587.00
2023-03-16T21:09:21.688Z,585.00
2023-03-16T21:13:21.662Z,580.00
2023-03-16T21:17:22.606Z,584.00
2023-03-16T21:21:21.612Z,580.00
2023-03-16T21:25:21.587Z,581.00
2023-03-16T21:29:21.561Z,577.00
2023-03-16T21:33:21.522Z,573.00
2023-03-16T21:37:21.388Z,573.00
2023-03-16T21:41:21.360Z,575.00
2023-03-16T21:45:21.353Z,574.00
2023-03-16T21:49:21.306Z,579.00
2023-03-16T21:53:21.279Z,576.00
2023-03-16T21:57:21.254Z,577.00
2023-03-16T22:01:21.219Z,573.00
2023-03-16T22:05:21.218Z,570.00
2023-03-16T22:09:21.145Z,571.00
2023-03-16T22:13:21.120Z,573.00
2023-03-16T22:17:21.090Z,573.00
2023-03-16T22:21:21.038Z,569.00
2023-03-16T22:25:20.971Z,568.00
2023-03-16T22:29:20.970Z,569.00
2023-03-16T22:33:21.079Z,571.00
2023-03-16T22:37:20.995Z,574.00
2023-03-16T22:41:21.029Z,575.00
2023-03-16T22:45:20.898Z,575.00
2023-03-16T22:49:20.994Z,572.00
2023-03-16T22:53:20.844Z,570.00
2023-03-16T22:57:20.781Z,566.00
2023-03-16T23:01:20.881Z,568.00
2023-03-16T23:05:20.739Z,568.00
2023-03-16T23:09:21.049Z,569.00
2023-03-16T23:13:20.674Z,565.00
2023-03-16T23:17:20.796Z,567.00
2023-03-16T23:21:20.949Z,560.00
2023-03-16T23:25:21.037Z,561.00
2023-03-16T23:29:21.218Z,563.00
2023-03-16T23:33:21.384Z,558.00
2023-03-16T23:37:21.597Z,556.00
2023-03-16T23:41:21.774Z,554.00
2023-03-16T23:45:21.919Z,556.00
2023-03-16T23:49:23.125Z,556.00
2023-03-16T23:53:22.095Z,561.00
2023-03-16T23:57:22.133Z,561.00
